createdAt,value
2018-07-30T00:00:17.775Z,16.51
2018-07-30T00:01:17.679Z,16.48
2018-07-30T00:02:17.778Z,16.47
2018-07-30T00:03:17.839Z,16.44
2018-07-30T00:04:17.744Z,16.41
2018-07-30T00:05:17.785Z,16.41
2018-07-30T00:06:17.814Z,16.39
2018-07-30T00:07:17.721Z,16.36
2018-07-30T00:08:17.819Z,16.35
2018-07-30T00:09:17.826Z,16.31
2018-07-30T00:10:17.751Z,16.29
2018-07-30T00:11:17.803Z,16.31
2018-07-30T00:12:17.822Z,16.27
2018-07-30T00:13:17.751Z,16.24
2018-07-30T00:14:17.775Z,16.20
2018-07-30T00:15:17.791Z,16.17
2018-07-30T00:16:17.843Z,16.17
2018-07-30T00:17:17.789Z,16.16
2018-07-30T00:18:17.749Z,16.18
2018-07-30T00:19:17.720Z,16.18
2018-07-30T00:20:17.722Z,16.20
2018-07-30T00:21:17.834Z,16.20
2018-07-30T00:22:17.729Z,16.18
2018-07-30T00:23:17.817Z,16.20
2018-07-30T00:24:17.729Z,16.24
2018-07-30T00:25:17.733Z,16.21
2018-07-30T00:26:17.726Z,16.20
2018-07-30T00:27:17.727Z,16.18
2018-07-30T00:28:17.727Z,16.16
2018-07-30T00:29:17.799Z,16.13
2018-07-30T00:30:17.797Z,16.10
2018-07-30T00:31:17.785Z,16.07
2018-07-30T00:32:17.799Z,16.05
2018-07-30T00:33:17.812Z,16.00
2018-07-30T00:34:17.803Z,15.99
2018-07-30T00:35:17.803Z,15.97
2018-07-30T00:36:17.742Z,15.94
2018-07-30T00:37:17.741Z,15.93
2018-07-30T00:38:17.804Z,15.93
2018-07-30T00:39:17.861Z,15.90
2018-07-30T00:40:17.739Z,15.88
2018-07-30T00:41:17.805Z,15.88
2018-07-30T00:42:17.693Z,15.90
2018-07-30T00:43:17.807Z,15.88
2018-07-30T00:44:17.791Z,15.90
2018-07-30T00:45:17.737Z,15.88
2018-07-30T00:46:17.775Z,15.86
2018-07-30T00:47:17.794Z,15.86
2018-07-30T00:48:17.697Z,15.86
2018-07-30T00:49:17.801Z,15.88
2018-07-30T00:50:17.737Z,15.88
2018-07-30T00:51:17.715Z,15.94
2018-07-30T00:52:17.789Z,15.95
2018-07-30T00:53:17.684Z,16.00
2018-07-30T00:54:17.774Z,15.95
2018-07-30T00:55:17.834Z,15.93
2018-07-30T00:56:17.808Z,15.95
2018-07-30T00:57:17.782Z,15.91
2018-07-30T00:58:17.724Z,15.91
2018-07-30T00:59:17.808Z,15.88
2018-07-30T01:00:17.689Z,15.87
2018-07-30T01:01:17.726Z,15.90
2018-07-30T01:02:17.767Z,15.87
2018-07-30T01:03:17.818Z,15.84
2018-07-30T01:04:17.853Z,15.83
2018-07-30T01:05:17.853Z,15.80
2018-07-30T01:06:17.742Z,15.80
2018-07-30T01:07:17.823Z,15.83
2018-07-30T01:08:17.829Z,15.80
2018-07-30T01:09:17.854Z,15.80
2018-07-30T01:10:17.749Z,15.77
2018-07-30T01:11:17.827Z,15.77
2018-07-30T01:12:17.836Z,15.82
2018-07-30T01:13:17.797Z,15.84
2018-07-30T01:14:17.786Z,15.87
2018-07-30T01:15:17.848Z,15.86
2018-07-30T01:16:17.828Z,15.84
2018-07-30T01:17:17.734Z,15.83
2018-07-30T01:18:17.872Z,15.80
2018-07-30T01:19:17.738Z,15.76
2018-07-30T01:20:17.871Z,15.73
2018-07-30T01:21:17.802Z,15.73
2018-07-30T01:22:17.839Z,15.72
2018-07-30T01:23:17.795Z,15.69
2018-07-30T01:24:17.808Z,15.69
2018-07-30T01:25:17.853Z,15.69
2018-07-30T01:26:17.743Z,15.68
2018-07-30T01:27:17.760Z,15.68
2018-07-30T01:28:17.807Z,15.65
2018-07-30T01:29:17.843Z,15.65
2018-07-30T01:30:17.842Z,15.64
2018-07-30T01:31:17.821Z,15.64
2018-07-30T01:32:17.875Z,15.61
2018-07-30T01:33:17.866Z,15.57
2018-07-30T01:34:17.842Z,15.57
2018-07-30T01:35:17.742Z,15.54
2018-07-30T01:36:17.871Z,15.54
2018-07-30T01:37:17.748Z,15.53
2018-07-30T01:38:17.872Z,15.54
2018-07-30T01:39:17.768Z,15.54
2018-07-30T01:40:17.887Z,15.54
2018-07-30T01:41:17.845Z,15.54
2018-07-30T01:42:17.879Z,15.53
2018-07-30T01:43:17.818Z,15.50
2018-07-30T01:44:17.889Z,15.48
2018-07-30T01:45:17.882Z,15.47
2018-07-30T01:46:17.831Z,15.46
2018-07-30T01:47:17.850Z,15.46
2018-07-30T01:48:17.876Z,15.44
2018-07-30T01:49:17.759Z,15.47
2018-07-30T01:50:17.752Z,15.46
2018-07-30T01:51:17.832Z,15.46
2018-07-30T01:52:17.877Z,15.46
2018-07-30T01:53:17.814Z,15.48
2018-07-30T01:54:17.825Z,15.51
2018-07-30T01:55:17.797Z,15.50
2018-07-30T01:56:17.860Z,15.51
2018-07-30T01:57:17.857Z,15.51
2018-07-30T01:58:17.863Z,15.50
2018-07-30T01:59:17.792Z,15.47
2018-07-30T02:00:17.861Z,15.44
2018-07-30T02:01:17.793Z,15.42
2018-07-30T02:02:17.796Z,15.42
2018-07-30T02:03:17.797Z,15.39
2018-07-30T02:04:17.844Z,15.36
2018-07-30T02:05:17.906Z,15.35
2018-07-30T02:06:17.845Z,15.32
2018-07-30T02:07:17.833Z,15.31
2018-07-30T02:08:17.907Z,15.33
2018-07-30T02:09:17.850Z,15.37
2018-07-30T02:10:17.925Z,15.39
2018-07-30T02:11:17.808Z,15.39
2018-07-30T02:12:17.906Z,15.37
2018-07-30T02:13:17.873Z,15.33
2018-07-30T02:14:17.885Z,15.33
2018-07-30T02:15:17.834Z,15.31
2018-07-30T02:16:17.908Z,15.28
2018-07-30T02:17:17.908Z,15.26
2018-07-30T02:18:17.910Z,15.26
2018-07-30T02:19:17.846Z,15.25
2018-07-30T02:20:18.013Z,15.24
2018-07-30T02:21:17.795Z,15.24
2018-07-30T02:22:17.810Z,15.21
2018-07-30T02:23:17.814Z,15.25
2018-07-30T02:24:17.912Z,15.29
2018-07-30T02:25:17.906Z,15.28
2018-07-30T02:26:17.814Z,15.25
2018-07-30T02:27:17.786Z,15.22
2018-07-30T02:28:17.850Z,15.19
2018-07-30T02:29:17.914Z,15.21
2018-07-30T02:30:17.883Z,15.33
2018-07-30T02:31:17.842Z,15.44
2018-07-30T02:32:17.807Z,15.50
2018-07-30T02:33:17.859Z,15.50
2018-07-30T02:34:17.904Z,15.51
2018-07-30T02:35:17.791Z,15.53
2018-07-30T02:36:17.787Z,15.58
2018-07-30T02:37:17.825Z,15.58
2018-07-30T02:38:17.857Z,15.55
2018-07-30T02:39:17.790Z,15.53
2018-07-30T02:40:17.918Z,15.50
2018-07-30T02:41:17.830Z,15.46
2018-07-30T02:42:17.868Z,15.43
2018-07-30T02:43:17.889Z,15.42
2018-07-30T02:44:17.862Z,15.43
2018-07-30T02:45:17.855Z,15.46
2018-07-30T02:46:17.930Z,15.51
2018-07-30T02:47:17.815Z,15.51
2018-07-30T02:48:17.913Z,15.51
2018-07-30T02:49:17.917Z,15.53
2018-07-30T02:50:17.906Z,15.51
2018-07-30T02:51:17.864Z,15.48
2018-07-30T02:52:17.929Z,15.51
2018-07-30T02:53:17.939Z,15.57
2018-07-30T02:54:17.955Z,15.61
2018-07-30T02:55:17.835Z,15.65
2018-07-30T02:56:17.902Z,15.64
2018-07-30T02:57:17.835Z,15.62
2018-07-30T02:58:17.845Z,15.59
2018-07-30T02:59:17.906Z,15.57
2018-07-30T03:00:17.920Z,15.55
2018-07-30T03:01:17.840Z,15.55
2018-07-30T03:02:17.904Z,15.57
2018-07-30T03:03:17.905Z,15.61
2018-07-30T03:04:17.898Z,15.62
2018-07-30T03:05:17.777Z,15.64
2018-07-30T03:06:17.899Z,15.66
2018-07-30T03:07:17.837Z,15.72
2018-07-30T03:08:17.776Z,15.72
2018-07-30T03:09:17.927Z,15.69
2018-07-30T03:10:17.864Z,15.65
2018-07-30T03:11:17.888Z,15.61
2018-07-30T03:12:17.902Z,15.57
2018-07-30T03:13:17.781Z,15.51
2018-07-30T03:14:17.842Z,15.51
2018-07-30T03:15:17.846Z,15.54
2018-07-30T03:16:17.939Z,15.48
2018-07-30T03:17:17.850Z,15.46
2018-07-30T03:18:17.920Z,15.44
2018-07-30T03:19:17.853Z,15.42
2018-07-30T03:20:17.926Z,15.37
2018-07-30T03:21:17.849Z,15.35
2018-07-30T03:22:17.851Z,15.29
2018-07-30T03:23:17.851Z,15.22
2018-07-30T03:24:17.857Z,15.19
2018-07-30T03:25:17.892Z,15.15
2018-07-30T03:26:17.979Z,15.13
2018-07-30T03:27:17.826Z,15.10
2018-07-30T03:28:17.822Z,15.04
2018-07-30T03:29:17.955Z,15.02
2018-07-30T03:30:17.924Z,14.98
2018-07-30T03:31:17.899Z,14.98
2018-07-30T03:32:17.982Z,14.96
2018-07-30T03:33:17.929Z,15.00
2018-07-30T03:34:17.960Z,15.04
2018-07-30T03:35:17.920Z,15.03
2018-07-30T03:36:17.870Z,15.03
2018-07-30T03:37:17.848Z,15.00
2018-07-30T03:38:17.885Z,14.98
2018-07-30T03:39:17.925Z,15.00
2018-07-30T03:40:17.928Z,15.06
2018-07-30T03:41:17.854Z,15.08
2018-07-30T03:42:17.816Z,15.13
2018-07-30T03:43:17.928Z,15.14
2018-07-30T03:44:17.855Z,15.19
2018-07-30T03:45:17.970Z,15.25
2018-07-30T03:46:17.960Z,15.25
2018-07-30T03:47:17.963Z,15.24
2018-07-30T03:48:17.908Z,15.24
2018-07-30T03:49:17.842Z,15.24
2018-07-30T03:50:17.857Z,15.26
2018-07-30T03:51:17.878Z,15.28
2018-07-30T03:52:17.981Z,15.28
2018-07-30T03:53:17.999Z,15.25
2018-07-30T03:54:17.980Z,15.24
2018-07-30T03:55:17.877Z,15.19
2018-07-30T03:56:17.985Z,15.19
2018-07-30T03:57:17.982Z,15.19
2018-07-30T03:58:17.849Z,15.18
2018-07-30T03:59:17.961Z,15.21
2018-07-30T04:00:18.029Z,15.19
2018-07-30T04:01:17.864Z,15.17
2018-07-30T04:02:17.883Z,15.17
2018-07-30T04:03:17.882Z,15.17
2018-07-30T04:04:17.913Z,15.15
2018-07-30T04:05:17.972Z,15.17
2018-07-30T04:06:17.966Z,15.18
2018-07-30T04:07:17.976Z,15.17
2018-07-30T04:08:17.857Z,15.17
2018-07-30T04:09:17.911Z,15.17
2018-07-30T04:10:17.973Z,15.15
2018-07-30T04:11:17.918Z,15.15
2018-07-30T04:12:17.929Z,15.15
2018-07-30T04:13:17.947Z,15.15
2018-07-30T04:14:17.978Z,15.17
2018-07-30T04:15:17.908Z,15.19
2018-07-30T04:16:17.978Z,15.19
2018-07-30T04:17:17.953Z,15.25
2018-07-30T04:18:17.928Z,15.33
2018-07-30T04:19:17.976Z,15.42
2018-07-30T04:20:17.882Z,15.44
2018-07-30T04:21:17.923Z,15.48
2018-07-30T04:22:18.104Z,15.50
2018-07-30T04:23:17.866Z,15.53
2018-07-30T04:24:17.958Z,15.54
2018-07-30T04:25:17.996Z,15.59
2018-07-30T04:26:17.985Z,15.62
2018-07-30T04:27:17.867Z,15.62
2018-07-30T04:28:17.992Z,15.65
2018-07-30T04:29:17.922Z,15.66
2018-07-30T04:30:18.001Z,15.68
2018-07-30T04:31:18.003Z,15.70
2018-07-30T04:32:18.003Z,15.69
2018-07-30T04:33:17.929Z,15.72
2018-07-30T04:34:17.887Z,15.72
2018-07-30T04:35:17.969Z,15.75
2018-07-30T04:36:17.905Z,15.79
2018-07-30T04:37:17.899Z,15.86
2018-07-30T04:38:17.968Z,15.87
2018-07-30T04:39:17.904Z,15.93
2018-07-30T04:40:17.907Z,15.95
2018-07-30T04:41:17.902Z,15.95
2018-07-30T04:42:17.905Z,15.94
2018-07-30T04:43:17.976Z,15.93
2018-07-30T04:44:17.972Z,15.93
2018-07-30T04:45:17.936Z,15.93
2018-07-30T04:46:17.940Z,15.93
2018-07-30T04:47:17.976Z,15.93
2018-07-30T04:48:18.012Z,15.91
2018-07-30T04:49:17.981Z,15.94
2018-07-30T04:50:17.939Z,15.95
2018-07-30T04:51:18.012Z,16.00
2018-07-30T04:52:18.019Z,16.05
2018-07-30T04:53:17.944Z,16.09
2018-07-30T04:54:17.945Z,16.11
2018-07-30T04:55:17.878Z,16.13
2018-07-30T04:56:17.887Z,16.18
2018-07-30T04:57:17.937Z,16.20
2018-07-30T04:58:17.962Z,16.21
2018-07-30T04:59:17.935Z,16.25
2018-07-30T05:00:17.950Z,16.25
2018-07-30T05:01:18.016Z,16.27
2018-07-30T05:02:17.885Z,16.27
2018-07-30T05:03:17.937Z,16.28
2018-07-30T05:04:18.026Z,16.28
2018-07-30T05:05:17.857Z,16.31
2018-07-30T05:06:17.982Z,16.35
2018-07-30T05:07:17.895Z,16.35
2018-07-30T05:08:17.983Z,16.38
2018-07-30T05:09:17.975Z,16.41
2018-07-30T05:10:17.892Z,16.44
2018-07-30T05:11:17.942Z,16.47
2018-07-30T05:12:17.859Z,16.50
2018-07-30T05:13:17.879Z,16.50
2018-07-30T05:14:17.864Z,16.55
2018-07-30T05:15:17.949Z,16.55
2018-07-30T05:16:18.028Z,16.61
2018-07-30T05:17:17.961Z,16.68
2018-07-30T05:18:17.948Z,16.72
2018-07-30T05:19:18.038Z,16.76
2018-07-30T05:20:17.999Z,16.81
2018-07-30T05:21:17.999Z,16.84
2018-07-30T05:22:17.971Z,16.88
2018-07-30T05:23:17.961Z,16.94
2018-07-30T05:24:17.978Z,16.99
2018-07-30T05:25:18.000Z,17.08
2018-07-30T05:26:17.902Z,17.13
2018-07-30T05:27:17.925Z,17.20
2018-07-30T05:28:18.003Z,17.22
2018-07-30T05:29:17.903Z,17.26
2018-07-30T05:30:17.928Z,17.31
2018-07-30T05:31:17.927Z,17.33
2018-07-30T05:32:18.031Z,17.37
2018-07-30T05:33:17.914Z,17.42
2018-07-30T05:34:18.041Z,17.46
2018-07-30T05:35:17.973Z,17.49
2018-07-30T05:36:18.049Z,17.53
2018-07-30T05:37:18.080Z,17.58
2018-07-30T05:38:18.047Z,17.62
2018-07-30T05:39:18.026Z,17.66
2018-07-30T05:40:17.916Z,17.71
2018-07-30T05:41:17.913Z,17.75
2018-07-30T05:42:18.045Z,17.77
2018-07-30T05:43:17.982Z,17.83
2018-07-30T05:44:18.047Z,17.87
2018-07-30T05:45:18.008Z,17.92
2018-07-30T05:46:17.925Z,17.96
2018-07-30T05:47:18.019Z,18.06
2018-07-30T05:48:18.008Z,18.12
2018-07-30T05:49:17.921Z,18.17
2018-07-30T05:50:17.963Z,18.23
2018-07-30T05:51:18.010Z,18.25
2018-07-30T05:52:18.017Z,18.32
2018-07-30T05:53:17.929Z,18.36
2018-07-30T05:54:17.898Z,18.47
2018-07-30T05:55:18.058Z,18.64
2018-07-30T05:56:18.050Z,18.87
2018-07-30T05:57:17.947Z,19.03
2018-07-30T05:58:18.061Z,19.19
2018-07-30T05:59:17.988Z,19.39
2018-07-30T06:00:18.013Z,19.68
2018-07-30T06:01:18.028Z,19.91
2018-07-30T06:02:18.112Z,20.13
2018-07-30T06:03:18.053Z,20.42
2018-07-30T06:04:18.063Z,20.61
2018-07-30T06:05:17.989Z,20.83
2018-07-30T06:06:18.030Z,21.06
2018-07-30T06:07:17.953Z,21.27
2018-07-30T06:08:18.001Z,21.43
2018-07-30T06:09:18.035Z,21.61
2018-07-30T06:10:17.992Z,21.76
2018-07-30T06:11:17.992Z,21.93
2018-07-30T06:12:17.956Z,22.02
2018-07-30T06:13:18.032Z,22.12
2018-07-30T06:14:18.062Z,22.21
2018-07-30T06:15:18.040Z,22.41
2018-07-30T06:16:17.974Z,22.45
2018-07-30T06:17:17.973Z,22.53
2018-07-30T06:18:18.025Z,22.72
2018-07-30T06:19:17.974Z,22.76
2018-07-30T06:20:18.042Z,22.79
2018-07-30T06:21:18.043Z,22.91
2018-07-30T06:22:18.012Z,22.82
2018-07-30T06:23:17.979Z,22.75
2018-07-30T06:24:17.976Z,22.82
2018-07-30T06:25:18.001Z,22.93
2018-07-30T06:26:18.011Z,23.09
2018-07-30T06:27:18.181Z,23.26
2018-07-30T06:28:18.049Z,23.38
2018-07-30T06:29:18.046Z,23.60
2018-07-30T06:30:18.011Z,23.75
2018-07-30T06:31:18.087Z,23.80
2018-07-30T06:32:18.029Z,23.83
2018-07-30T06:33:17.989Z,23.96
2018-07-30T06:34:18.029Z,24.08
2018-07-30T06:35:18.055Z,23.90
2018-07-30T06:36:17.983Z,23.75
2018-07-30T06:37:17.983Z,23.71
2018-07-30T06:38:17.984Z,23.71
2018-07-30T06:39:17.991Z,23.80
2018-07-30T06:40:17.990Z,23.82
2018-07-30T06:41:18.056Z,23.78
2018-07-30T06:42:17.992Z,24.00
2018-07-30T06:43:17.991Z,24.25
2018-07-30T06:44:17.985Z,24.49
2018-07-30T06:45:18.055Z,24.54
2018-07-30T06:46:18.077Z,24.70
2018-07-30T06:47:18.024Z,24.82
2018-07-30T06:48:18.063Z,24.72
2018-07-30T06:49:18.079Z,24.78
2018-07-30T06:50:17.964Z,24.95
2018-07-30T06:51:18.061Z,24.97
2018-07-30T06:52:17.964Z,24.79
2018-07-30T06:53:18.106Z,24.63
2018-07-30T06:54:18.040Z,24.57
2018-07-30T06:55:17.930Z,24.48
2018-07-30T06:56:18.015Z,24.16
2018-07-30T06:57:17.969Z,24.00
2018-07-30T06:59:18.016Z,23.85
2018-07-30T07:00:17.973Z,23.94
2018-07-30T07:01:17.986Z,24.08
2018-07-30T07:02:18.021Z,24.26
2018-07-30T07:03:18.004Z,24.36
2018-07-30T07:04:18.056Z,24.47
2018-07-30T07:05:18.091Z,24.64
2018-07-30T07:06:17.968Z,24.85
2018-07-30T07:07:18.062Z,25.09
2018-07-30T07:08:18.041Z,25.29
2018-07-30T07:09:17.978Z,25.53
2018-07-30T07:10:18.100Z,25.60
2018-07-30T07:11:18.086Z,25.81
2018-07-30T07:12:18.074Z,25.70
2018-07-30T07:13:18.115Z,25.81
2018-07-30T07:14:18.050Z,25.84
2018-07-30T07:15:17.980Z,25.82
2018-07-30T07:16:17.954Z,25.99
2018-07-30T07:17:18.017Z,26.06
2018-07-30T07:18:18.016Z,26.22
2018-07-30T07:19:18.068Z,26.41
2018-07-30T07:20:18.000Z,26.49
2018-07-30T07:21:18.102Z,26.48
2018-07-30T07:22:17.950Z,26.62
2018-07-30T07:23:17.993Z,26.84
2018-07-30T07:24:18.084Z,26.97
2018-07-30T07:25:18.056Z,27.11
2018-07-30T07:26:18.048Z,27.28
2018-07-30T07:27:17.988Z,27.32
2018-07-30T07:28:18.008Z,27.47
2018-07-30T07:29:18.113Z,27.55
2018-07-30T07:30:18.055Z,27.52
2018-07-30T07:31:18.060Z,27.33
2018-07-30T07:32:18.112Z,27.34
2018-07-30T07:33:18.056Z,27.26
2018-07-30T07:34:18.052Z,27.32
2018-07-30T07:35:17.992Z,27.36
2018-07-30T07:36:17.985Z,27.39
2018-07-30T07:37:18.026Z,27.52
2018-07-30T07:38:18.084Z,27.63
2018-07-30T07:39:18.004Z,27.78
2018-07-30T07:40:18.105Z,27.95
2018-07-30T07:41:18.043Z,28.18
2018-07-30T07:42:18.045Z,28.39
2018-07-30T07:43:17.950Z,28.64
2018-07-30T07:44:18.000Z,28.68
2018-07-30T07:45:18.059Z,28.69
2018-07-30T07:46:18.071Z,28.53
2018-07-30T07:47:18.128Z,28.57
2018-07-30T07:48:18.192Z,28.31
2018-07-30T07:49:18.121Z,28.33
2018-07-30T07:50:18.229Z,28.39
2018-07-30T07:51:18.134Z,28.39
2018-07-30T07:52:18.071Z,28.49
2018-07-30T07:53:18.069Z,28.57
2018-07-30T07:54:18.103Z,28.61
2018-07-30T07:55:18.140Z,28.77
2018-07-30T07:56:18.104Z,29.01
2018-07-30T07:57:18.048Z,29.04
2018-07-30T07:58:18.045Z,28.84
2018-07-30T07:59:18.049Z,28.47
2018-07-30T08:00:18.134Z,28.07
2018-07-30T08:01:18.133Z,28.24
2018-07-30T08:02:18.030Z,28.50
2018-07-30T08:03:18.079Z,28.61
2018-07-30T08:04:18.081Z,28.69
2018-07-30T08:05:18.081Z,28.84
2018-07-30T08:06:18.262Z,28.91
2018-07-30T08:07:18.112Z,29.20
2018-07-30T08:08:18.092Z,29.43
2018-07-30T08:09:18.018Z,29.54
2018-07-30T08:10:18.138Z,29.75
2018-07-30T08:11:18.133Z,29.75
2018-07-30T08:12:18.116Z,29.87
2018-07-30T08:13:18.027Z,29.92
2018-07-30T08:14:18.097Z,29.88
2018-07-30T08:15:18.163Z,29.54
2018-07-30T08:16:18.072Z,29.52
2018-07-30T08:17:18.157Z,29.51
2018-07-30T08:18:18.152Z,29.27
2018-07-30T08:19:18.022Z,28.99
2018-07-30T08:20:18.091Z,28.91
2018-07-30T08:21:18.090Z,29.14
2018-07-30T08:22:18.226Z,29.01
2018-07-30T08:23:18.030Z,28.98
2018-07-30T08:24:18.089Z,29.14
2018-07-30T08:25:18.095Z,29.37
2018-07-30T08:26:18.036Z,29.31
2018-07-30T08:27:18.094Z,29.43
2018-07-30T08:28:18.089Z,29.44
2018-07-30T08:29:18.100Z,29.39
2018-07-30T08:30:18.125Z,29.47
2018-07-30T08:31:18.168Z,29.70
2018-07-30T08:32:18.049Z,29.77
2018-07-30T08:33:18.089Z,29.95
2018-07-30T08:34:18.164Z,29.99
2018-07-30T08:35:18.064Z,29.91
2018-07-30T08:36:18.065Z,29.72
2018-07-30T08:37:18.132Z,29.62
2018-07-30T08:38:18.132Z,29.52
2018-07-30T08:39:18.070Z,29.48
2018-07-30T08:40:18.144Z,29.31
2018-07-30T08:41:18.024Z,29.23
2018-07-30T08:42:18.064Z,29.18
2018-07-30T08:43:18.140Z,29.34
2018-07-30T08:44:18.078Z,29.48
2018-07-30T08:45:18.171Z,29.72
2018-07-30T08:46:18.173Z,29.86
2018-07-30T08:47:18.122Z,29.86
2018-07-30T08:48:18.171Z,29.97
2018-07-30T08:49:18.114Z,30.21
2018-07-30T08:50:18.069Z,30.26
2018-07-30T08:51:18.178Z,30.50
2018-07-30T08:52:18.109Z,30.68
2018-07-30T08:53:18.178Z,30.82
2018-07-30T08:54:18.174Z,30.93
2018-07-30T08:55:18.137Z,30.94
2018-07-30T08:56:18.052Z,30.93
2018-07-30T08:57:18.067Z,31.00
2018-07-30T08:58:18.145Z,31.17
2018-07-30T08:59:18.148Z,31.41
2018-07-30T09:00:18.057Z,31.63
2018-07-30T09:01:18.069Z,31.74
2018-07-30T09:02:18.082Z,31.70
2018-07-30T09:03:18.041Z,31.75
2018-07-30T09:04:18.059Z,31.89
2018-07-30T09:05:18.124Z,32.19
2018-07-30T09:06:18.193Z,32.43
2018-07-30T09:07:18.192Z,32.52
2018-07-30T09:08:18.156Z,32.12
2018-07-30T09:09:18.132Z,31.88
2018-07-30T09:10:18.181Z,32.04
2018-07-30T09:11:18.133Z,32.18
2018-07-30T09:12:18.055Z,32.22
2018-07-30T09:13:18.192Z,32.41
2018-07-30T09:14:18.120Z,32.22
2018-07-30T09:15:18.181Z,32.23
2018-07-30T09:16:18.115Z,32.45
2018-07-30T09:17:18.246Z,32.62
2018-07-30T09:18:18.193Z,32.47
2018-07-30T09:19:18.144Z,32.30
2018-07-30T09:20:18.124Z,32.34
2018-07-30T09:21:18.137Z,32.43
2018-07-30T09:22:18.130Z,32.44
2018-07-30T09:23:18.190Z,32.65
2018-07-30T09:24:18.189Z,32.84
2018-07-30T09:25:18.164Z,33.00
2018-07-30T09:26:18.168Z,32.66
2018-07-30T09:27:18.104Z,32.59
2018-07-30T09:28:18.107Z,32.78
2018-07-30T09:29:18.114Z,33.06
2018-07-30T09:30:18.214Z,33.02
2018-07-30T09:31:18.173Z,33.05
2018-07-30T09:32:18.108Z,33.06
2018-07-30T09:33:18.173Z,32.89
2018-07-30T09:34:18.107Z,32.92
2018-07-30T09:35:18.174Z,32.95
2018-07-30T09:36:18.098Z,33.18
2018-07-30T09:37:18.140Z,33.39
2018-07-30T09:38:18.146Z,33.54
2018-07-30T09:39:18.226Z,33.54
2018-07-30T09:40:18.213Z,33.58
2018-07-30T09:41:18.194Z,33.59
2018-07-30T09:42:18.209Z,33.69
2018-07-30T09:43:18.179Z,33.41
2018-07-30T09:44:18.156Z,33.47
2018-07-30T09:45:18.154Z,33.54
2018-07-30T09:46:18.183Z,33.52
2018-07-30T09:47:18.119Z,33.69
2018-07-30T09:48:18.116Z,33.85
2018-07-30T09:49:18.182Z,33.92
2018-07-30T09:50:18.184Z,33.99
2018-07-30T09:51:18.136Z,34.12
2018-07-30T09:52:18.185Z,34.02
2018-07-30T09:53:18.123Z,33.99
2018-07-30T09:54:18.186Z,34.20
2018-07-30T09:55:18.121Z,34.24
2018-07-30T09:56:18.294Z,34.35
2018-07-30T09:57:18.109Z,34.35
2018-07-30T09:58:18.090Z,34.43
2018-07-30T09:59:18.130Z,34.57
2018-07-30T10:00:18.225Z,34.53
2018-07-30T10:01:18.151Z,34.67
2018-07-30T10:02:18.099Z,34.42
2018-07-30T10:03:18.227Z,34.20
2018-07-30T10:04:18.221Z,34.16
2018-07-30T10:05:18.168Z,34.34
2018-07-30T10:06:18.286Z,34.50
2018-07-30T10:07:18.162Z,34.57
2018-07-30T10:08:18.115Z,34.71
2018-07-30T10:09:18.156Z,34.70
2018-07-30T10:10:18.236Z,34.71
2018-07-30T10:11:18.175Z,34.72
2018-07-30T10:12:18.200Z,34.70
2018-07-30T10:13:18.228Z,34.56
2018-07-30T10:14:18.238Z,34.50
2018-07-30T10:15:18.237Z,34.54
2018-07-30T10:16:18.200Z,34.65
2018-07-30T10:17:18.201Z,34.83
2018-07-30T10:18:18.307Z,34.87
2018-07-30T10:19:18.248Z,34.70
2018-07-30T10:20:18.237Z,34.61
2018-07-30T10:21:18.228Z,34.67
2018-07-30T10:22:18.228Z,34.88
2018-07-30T10:23:18.225Z,34.98
2018-07-30T10:24:18.228Z,34.94
2018-07-30T10:25:18.241Z,34.61
2018-07-30T10:26:18.173Z,34.47
2018-07-30T10:27:18.213Z,34.57
2018-07-30T10:28:18.182Z,34.68
2018-07-30T10:29:18.265Z,34.59
2018-07-30T10:30:18.244Z,34.80
2018-07-30T10:31:18.211Z,34.72
2018-07-30T10:32:18.243Z,34.71
2018-07-30T10:33:18.171Z,34.54
2018-07-30T10:34:18.217Z,34.63
2018-07-30T10:35:18.275Z,34.67
2018-07-30T10:36:18.083Z,34.63
2018-07-30T10:37:18.194Z,34.65
2018-07-30T10:38:18.327Z,34.59
2018-07-30T10:39:18.151Z,34.67
2018-07-30T10:40:18.183Z,34.68
2018-07-30T10:41:18.201Z,34.46
2018-07-30T10:42:18.179Z,34.25
2018-07-30T10:43:18.109Z,33.90
2018-07-30T10:44:18.179Z,33.99
2018-07-30T10:45:18.229Z,33.99
2018-07-30T10:46:18.258Z,33.83
2018-07-30T10:47:18.247Z,33.85
2018-07-30T10:48:18.229Z,33.94
2018-07-30T10:49:18.161Z,34.09
2018-07-30T10:50:18.224Z,34.23
2018-07-30T10:51:18.157Z,34.08
2018-07-30T10:52:18.181Z,33.98
2018-07-30T10:53:18.265Z,34.05
2018-07-30T10:54:18.247Z,34.08
2018-07-30T10:55:18.206Z,34.23
2018-07-30T10:56:18.231Z,34.23
2018-07-30T10:57:18.233Z,34.34
2018-07-30T10:58:18.236Z,34.42
2018-07-30T10:59:18.235Z,34.60
2018-07-30T11:00:18.167Z,34.79
2018-07-30T11:01:18.233Z,34.91
2018-07-30T11:02:18.166Z,35.01
2018-07-30T11:03:18.235Z,35.12
2018-07-30T11:04:18.167Z,35.30
2018-07-30T11:05:18.171Z,35.27
2018-07-30T11:06:18.200Z,35.17
2018-07-30T11:07:18.179Z,35.12
2018-07-30T11:08:18.240Z,35.38
2018-07-30T11:09:18.267Z,35.56
2018-07-30T11:10:18.237Z,35.37
2018-07-30T11:11:18.273Z,35.24
2018-07-30T11:12:18.157Z,35.35
2018-07-30T11:13:18.216Z,35.71
2018-07-30T11:14:18.263Z,35.78
2018-07-30T11:15:18.268Z,35.52
2018-07-30T11:16:18.207Z,35.42
2018-07-30T11:18:18.207Z,34.42
2018-07-30T11:19:18.264Z,34.42
2018-07-30T11:20:18.168Z,34.67
2018-07-30T11:21:18.210Z,34.72
2018-07-30T11:22:18.269Z,34.86
2018-07-30T11:23:18.221Z,35.05
2018-07-30T11:24:18.278Z,35.37
2018-07-30T11:25:18.259Z,35.52
2018-07-30T11:26:18.262Z,35.19
2018-07-30T11:27:18.156Z,35.33
2018-07-30T11:28:18.175Z,35.46
2018-07-30T11:29:18.275Z,35.24
2018-07-30T11:30:18.204Z,35.05
2018-07-30T11:31:18.227Z,35.08
2018-07-30T11:32:18.274Z,35.09
2018-07-30T11:33:18.253Z,35.19
2018-07-30T11:34:18.216Z,35.27
2018-07-30T11:35:18.291Z,35.05
2018-07-30T11:36:18.296Z,34.91
2018-07-30T11:37:18.232Z,35.01
2018-07-30T11:38:18.222Z,35.15
2018-07-30T11:39:18.246Z,35.17
2018-07-30T11:40:18.236Z,35.09
2018-07-30T11:41:18.220Z,35.19
2018-07-30T11:42:18.241Z,35.22
2018-07-30T11:43:18.228Z,35.38
2018-07-30T11:44:18.246Z,35.35
2018-07-30T11:45:18.221Z,35.27
2018-07-30T11:46:18.286Z,35.35
2018-07-30T11:47:18.303Z,35.28
2018-07-30T11:48:18.257Z,35.15
2018-07-30T11:49:18.266Z,35.20
2018-07-30T11:50:18.161Z,35.38
2018-07-30T11:51:18.244Z,35.34
2018-07-30T11:52:18.291Z,35.56
2018-07-30T11:53:18.188Z,35.77
2018-07-30T11:54:18.295Z,35.81
2018-07-30T11:55:18.247Z,35.88
2018-07-30T11:56:18.171Z,35.77
2018-07-30T11:57:18.239Z,35.68
2018-07-30T11:58:18.292Z,35.84
2018-07-30T11:59:18.193Z,35.74
2018-07-30T12:00:18.275Z,35.64
2018-07-30T12:01:18.299Z,35.33
2018-07-30T12:02:18.241Z,35.34
2018-07-30T12:03:18.314Z,35.37
2018-07-30T12:04:18.311Z,35.56
2018-07-30T12:05:18.280Z,35.82
2018-07-30T12:06:18.216Z,35.90
2018-07-30T12:07:18.288Z,36.24
2018-07-30T12:08:18.221Z,36.51
2018-07-30T12:09:18.278Z,36.52
2018-07-30T12:10:18.235Z,36.72
2018-07-30T12:11:18.286Z,36.57
2018-07-30T12:12:18.285Z,36.36
2018-07-30T12:13:18.282Z,36.44
2018-07-30T12:14:18.284Z,36.24
2018-07-30T12:15:18.222Z,36.17
2018-07-30T12:16:18.326Z,36.06
2018-07-30T12:17:18.211Z,36.30
2018-07-30T12:18:18.242Z,36.39
2018-07-30T12:19:18.269Z,36.32
2018-07-30T12:20:18.308Z,36.22
2018-07-30T12:21:18.326Z,36.22
2018-07-30T12:22:18.292Z,35.93
2018-07-30T12:23:18.292Z,35.56
2018-07-30T12:24:18.314Z,35.38
2018-07-30T12:25:18.272Z,35.60
2018-07-30T12:26:18.312Z,35.81
2018-07-30T12:27:18.266Z,35.97
2018-07-30T12:28:18.333Z,36.04
2018-07-30T12:29:18.324Z,36.04
2018-07-30T12:30:18.364Z,36.11
2018-07-30T12:31:18.333Z,36.40
2018-07-30T12:32:18.318Z,36.44
2018-07-30T12:33:18.326Z,35.82
2018-07-30T12:34:18.271Z,35.34
2018-07-30T12:35:18.319Z,35.12
2018-07-30T12:36:18.422Z,35.13
2018-07-30T12:37:18.333Z,35.17
2018-07-30T12:38:18.322Z,35.15
2018-07-30T12:39:18.303Z,35.09
2018-07-30T12:40:18.304Z,35.05
2018-07-30T12:41:18.208Z,34.91
2018-07-30T12:42:18.337Z,34.68
2018-07-30T12:43:18.308Z,34.47
2018-07-30T12:44:18.268Z,34.32
2018-07-30T12:45:18.281Z,34.31
2018-07-30T12:46:18.240Z,34.47
2018-07-30T12:47:18.183Z,34.80
2018-07-30T12:48:18.286Z,35.06
2018-07-30T12:49:18.241Z,35.37
2018-07-30T12:50:18.298Z,35.70
2018-07-30T12:51:18.317Z,35.92
2018-07-30T12:52:18.269Z,36.17
2018-07-30T12:53:18.301Z,36.25
2018-07-30T12:54:18.248Z,36.44